sensor_id;sensor_type;location;lat;lon;timestamp;P1;durP1;ratioP1;P2;durP2;ratioP2
26540;SDS011;14206;50.202;10.948;2023-05-10T00:01:01;1.60;;;1.50;;
26540;SDS011;14206;50.202;10.948;2023-05-10T00:03:28;1.83;;;1.58;;
26540;SDS011;14206;50.202;10.948;2023-05-10T00:05:55;1.73;;;1.30;;
26540;SDS011;14206;50.202;10.948;2023-05-10T00:08:22;1.75;;;1.40;;
26540;SDS011;14206;50.202;10.948;2023-05-10T00:10:49;1.73;;;1.60;;
26540;SDS011;14206;50.202;10.948;2023-05-10T00:13:16;1.40;;;1.30;;
26540;SDS011;14206;50.202;10.948;2023-05-10T00:15:42;1.20;;;1.10;;
26540;SDS011;14206;50.202;10.948;2023-05-10T00:18:09;1.85;;;1.38;;
26540;SDS011;14206;50.202;10.948;2023-05-10T00:20:36;1.50;;;1.27;;
26540;SDS011;14206;50.202;10.948;2023-05-10T00:23:03;1.42;;;1.33;;
26540;SDS011;14206;50.202;10.948;2023-05-10T00:25:30;1.30;;;1.20;;
26540;SDS011;14206;50.202;10.948;2023-05-10T00:27:57;1.63;;;1.50;;
26540;SDS011;14206;50.202;10.948;2023-05-10T00:30:24;2.20;;;1.40;;
26540;SDS011;14206;50.202;10.948;2023-05-10T00:32:50;1.40;;;1.30;;
26540;SDS011;14206;50.202;10.948;2023-05-10T00:35:18;1.45;;;1.27;;
26540;SDS011;14206;50.202;10.948;2023-05-10T00:37:45;1.65;;;1.55;;
26540;SDS011;14206;50.202;10.948;2023-05-10T00:40:11;2.42;;;1.88;;
26540;SDS011;14206;50.202;10.948;2023-05-10T00:42:41;1.70;;;1.60;;
26540;SDS011;14206;50.202;10.948;2023-05-10T00:45:08;1.35;;;1.25;;
26540;SDS011;14206;50.202;10.948;2023-05-10T00:47:35;1.33;;;1.23;;
26540;SDS011;14206;50.202;10.948;2023-05-10T00:50:02;2.33;;;1.90;;
26540;SDS011;14206;50.202;10.948;2023-05-10T00:52:30;3.03;;;1.58;;
26540;SDS011;14206;50.202;10.948;2023-05-10T00:54:57;1.60;;;1.50;;
26540;SDS011;14206;50.202;10.948;2023-05-10T00:57:24;2.88;;;2.13;;
26540;SDS011;14206;50.202;10.948;2023-05-10T00:59:51;2.22;;;1.73;;
26540;SDS011;14206;50.202;10.948;2023-05-10T01:02:18;2.00;;;1.80;;
26540;SDS011;14206;50.202;10.948;2023-05-10T01:04:45;1.40;;;1.30;;
26540;SDS011;14206;50.202;10.948;2023-05-10T01:07:12;1.42;;;1.33;;
26540;SDS011;14206;50.202;10.948;2023-05-10T01:09:39;2.30;;;1.50;;
26540;SDS011;14206;50.202;10.948;2023-05-10T01:12:06;2.97;;;1.65;;
26540;SDS011;14206;50.202;10.948;2023-05-10T01:14:33;2.00;;;1.90;;
26540;SDS011;14206;50.202;10.948;2023-05-10T01:17:02;2.72;;;2.10;;
26540;SDS011;14206;50.202;10.948;2023-05-10T01:19:31;2.50;;;2.20;;
26540;SDS011;14206;50.202;10.948;2023-05-10T01:22:24;2.85;;;1.85;;
26540;SDS011;14206;50.202;10.948;2023-05-10T01:25:06;1.83;;;1.67;;
26540;SDS011;14206;50.202;10.948;2023-05-10T01:30:40;2.13;;;1.83;;
26540;SDS011;14206;50.202;10.948;2023-05-10T01:46:30;1.63;;;1.45;;
26540;SDS011;14206;50.202;10.948;2023-05-10T01:49:02;2.20;;;1.88;;
26540;SDS011;14206;50.202;10.948;2023-05-10T01:51:53;1.70;;;1.60;;
26540;SDS011;14206;50.202;10.948;2023-05-10T01:54:25;1.60;;;1.50;;
26540;SDS011;14206;50.202;10.948;2023-05-10T01:56:55;1.95;;;1.50;;
26540;SDS011;14206;50.202;10.948;2023-05-10T01:59:28;1.35;;;1.25;;
26540;SDS011;14206;50.202;10.948;2023-05-10T02:01:58;1.95;;;1.40;;
26540;SDS011;14206;50.202;10.948;2023-05-10T02:04:27;1.80;;;1.25;;
26540;SDS011;14206;50.202;10.948;2023-05-10T02:06:55;1.30;;;1.20;;
26540;SDS011;14206;50.202;10.948;2023-05-10T02:09:23;1.23;;;1.13;;
26540;SDS011;14206;50.202;10.948;2023-05-10T02:11:54;2.13;;;1.42;;
26540;SDS011;14206;50.202;10.948;2023-05-10T02:14:24;1.27;;;1.17;;
26540;SDS011;14206;50.202;10.948;2023-05-10T02:16:53;1.42;;;1.33;;
26540;SDS011;14206;50.202;10.948;2023-05-10T02:19:21;1.48;;;1.35;;
26540;SDS011;14206;50.202;10.948;2023-05-10T02:21:50;2.17;;;1.50;;
26540;SDS011;14206;50.202;10.948;2023-05-10T02:24:17;1.98;;;1.30;;
26540;SDS011;14206;50.202;10.948;2023-05-10T02:26:45;1.40;;;1.30;;
26540;SDS011;14206;50.202;10.948;2023-05-10T02:29:15;1.70;;;1.60;;
26540;SDS011;14206;50.202;10.948;2023-05-10T02:31:43;1.20;;;1.10;;
26540;SDS011;14206;50.202;10.948;2023-05-10T02:34:11;1.75;;;1.63;;
26540;SDS011;14206;50.202;10.948;2023-05-10T02:36:39;1.77;;;1.52;;
26540;SDS011;14206;50.202;10.948;2023-05-10T02:39:07;1.58;;;1.48;;
26540;SDS011;14206;50.202;10.948;2023-05-10T02:41:39;1.55;;;1.45;;
26540;SDS011;14206;50.202;10.948;2023-05-10T02:44:08;1.48;;;1.35;;
26540;SDS011;14206;50.202;10.948;2023-05-10T02:46:36;1.85;;;1.30;;
26540;SDS011;14206;50.202;10.948;2023-05-10T02:49:04;1.98;;;1.45;;
26540;SDS011;14206;50.202;10.948;2023-05-10T02:51:31;1.40;;;1.30;;
26540;SDS011;14206;50.202;10.948;2023-05-10T02:54:01;1.48;;;1.38;;
26540;SDS011;14206;50.202;10.948;2023-05-10T02:56:35;1.50;;;1.40;;
26540;SDS011;14206;50.202;10.948;2023-05-10T02:59:05;1.45;;;1.23;;
26540;SDS011;14206;50.202;10.948;2023-05-10T03:01:32;2.15;;;1.33;;
26540;SDS011;14206;50.202;10.948;2023-05-10T03:03:59;1.63;;;1.50;;
26540;SDS011;14206;50.202;10.948;2023-05-10T03:06:26;1.50;;;1.40;;
26540;SDS011;14206;50.202;10.948;2023-05-10T03:08:54;1.75;;;1.65;;
26540;SDS011;14206;50.202;10.948;2023-05-10T03:14:16;1.25;;;1.15;;
26540;SDS011;14206;50.202;10.948;2023-05-10T03:17:04;2.28;;;1.40;;
26540;SDS011;14206;50.202;10.948;2023-05-10T03:19:46;1.90;;;1.70;;
26540;SDS011;14206;50.202;10.948;2023-05-10T03:22:26;1.63;;;1.52;;
26540;SDS011;14206;50.202;10.948;2023-05-10T03:25:07;1.60;;;1.50;;
26540;SDS011;14206;50.202;10.948;2023-05-10T03:27:42;1.80;;;1.67;;
26540;SDS011;14206;50.202;10.948;2023-05-10T03:30:10;2.05;;;1.95;;
26540;SDS011;14206;50.202;10.948;2023-05-10T03:32:38;2.20;;;2.00;;
26540;SDS011;14206;50.202;10.948;2023-05-10T03:35:06;2.40;;;2.20;;
26540;SDS011;14206;50.202;10.948;2023-05-10T03:37:39;2.38;;;2.17;;
26540;SDS011;14206;50.202;10.948;2023-05-10T03:40:06;2.40;;;2.20;;
26540;SDS011;14206;50.202;10.948;2023-05-10T03:42:36;2.50;;;2.30;;
26540;SDS011;14206;50.202;10.948;2023-05-10T03:45:03;2.55;;;2.35;;
26540;SDS011;14206;50.202;10.948;2023-05-10T03:47:30;2.33;;;2.13;;
26540;SDS011;14206;50.202;10.948;2023-05-10T03:49:57;2.30;;;2.10;;
26540;SDS011;14206;50.202;10.948;2023-05-10T03:52:24;2.10;;;1.90;;
26540;SDS011;14206;50.202;10.948;2023-05-10T03:54:51;1.98;;;1.88;;
26540;SDS011;14206;50.202;10.948;2023-05-10T03:57:18;2.30;;;2.10;;
26540;SDS011;14206;50.202;10.948;2023-05-10T03:59:45;2.28;;;1.90;;
26540;SDS011;14206;50.202;10.948;2023-05-10T04:02:11;2.00;;;1.55;;
26540;SDS011;14206;50.202;10.948;2023-05-10T04:04:38;2.47;;;2.28;;
26540;SDS011;14206;50.202;10.948;2023-05-10T04:07:05;2.58;;;2.00;;
26540;SDS011;14206;50.202;10.948;2023-05-10T04:09:33;2.40;;;2.20;;
26540;SDS011;14206;50.202;10.948;2023-05-10T04:11:59;2.80;;;2.60;;
26540;SDS011;14206;50.202;10.948;2023-05-10T04:14:28;3.00;;;2.35;;
26540;SDS011;14206;50.202;10.948;2023-05-10T04:16:55;2.47;;;2.17;;
26540;SDS011;14206;50.202;10.948;2023-05-10T04:19:22;2.60;;;2.40;;
26540;SDS011;14206;50.202;10.948;2023-05-10T04:21:49;2.38;;;2.13;;
26540;SDS011;14206;50.202;10.948;2023-05-10T04:24:16;2.40;;;2.20;;
26540;SDS011;14206;50.202;10.948;2023-05-10T04:26:43;5.25;;;4.40;;
26540;SDS011;14206;50.202;10.948;2023-05-10T04:29:09;4.32;;;3.80;;
26540;SDS011;14206;50.202;10.948;2023-05-10T04:31:37;3.60;;;3.30;;
26540;SDS011;14206;50.202;10.948;2023-05-10T04:34:04;3.33;;;3.03;;
26540;SDS011;14206;50.202;10.948;2023-05-10T04:36:32;3.45;;;3.15;;
26540;SDS011;14206;50.202;10.948;2023-05-10T04:39:01;3.13;;;2.70;;
26540;SDS011;14206;50.202;10.948;2023-05-10T04:41:29;3.55;;;2.83;;
26540;SDS011;14206;50.202;10.948;2023-05-10T04:43:56;2.45;;;2.25;;
26540;SDS011;14206;50.202;10.948;2023-05-10T04:46:23;2.88;;;2.67;;
26540;SDS011;14206;50.202;10.948;2023-05-10T04:48:49;2.83;;;2.63;;
26540;SDS011;14206;50.202;10.948;2023-05-10T04:51:16;2.70;;;2.50;;
26540;SDS011;14206;50.202;10.948;2023-05-10T04:53:43;2.95;;;2.60;;
26540;SDS011;14206;50.202;10.948;2023-05-10T04:56:19;2.33;;;2.13;;
26540;SDS011;14206;50.202;10.948;2023-05-10T04:58:46;3.85;;;3.22;;
26540;SDS011;14206;50.202;10.948;2023-05-10T05:01:13;2.90;;;2.60;;
26540;SDS011;14206;50.202;10.948;2023-05-10T05:03:40;4.22;;;2.58;;
26540;SDS011;14206;50.202;10.948;2023-05-10T05:06:07;2.42;;;2.22;;
26540;SDS011;14206;50.202;10.948;2023-05-10T05:08:34;2.83;;;2.55;;
26540;SDS011;14206;50.202;10.948;2023-05-10T05:11:01;2.47;;;2.28;;
26540;SDS011;14206;50.202;10.948;2023-05-10T05:13:27;3.40;;;2.20;;
26540;SDS011;14206;50.202;10.948;2023-05-10T05:15:56;1.65;;;1.55;;
26540;SDS011;14206;50.202;10.948;2023-05-10T05:18:22;3.08;;;1.88;;
26540;SDS011;14206;50.202;10.948;2023-05-10T05:20:49;1.58;;;1.42;;
26540;SDS011;14206;50.202;10.948;2023-05-10T05:23:16;1.80;;;1.40;;
26540;SDS011;14206;50.202;10.948;2023-05-10T05:25:44;1.20;;;1.10;;
26540;SDS011;14206;50.202;10.948;2023-05-10T05:28:11;1.20;;;1.10;;
26540;SDS011;14206;50.202;10.948;2023-05-10T05:30:38;0.80;;;0.80;;
26540;SDS011;14206;50.202;10.948;2023-05-10T05:33:05;0.70;;;0.70;;
26540;SDS011;14206;50.202;10.948;2023-05-10T05:35:32;0.77;;;0.70;;
26540;SDS011;14206;50.202;10.948;2023-05-10T05:37:59;0.52;;;0.52;;
26540;SDS011;14206;50.202;10.948;2023-05-10T05:40:26;0.95;;;0.52;;
26540;SDS011;14206;50.202;10.948;2023-05-10T05:42:53;1.15;;;0.40;;
26540;SDS011;14206;50.202;10.948;2023-05-10T05:45:20;0.55;;;0.30;;
26540;SDS011;14206;50.202;10.948;2023-05-10T05:47:47;0.30;;;0.30;;
26540;SDS011;14206;50.202;10.948;2023-05-10T05:50:14;0.55;;;0.30;;
26540;SDS011;14206;50.202;10.948;2023-05-10T05:52:41;0.45;;;0.38;;
26540;SDS011;14206;50.202;10.948;2023-05-10T05:55:08;0.20;;;0.20;;
26540;SDS011;14206;50.202;10.948;2023-05-10T05:57:35;0.30;;;0.30;;
26540;SDS011;14206;50.202;10.948;2023-05-10T06:00:01;1.50;;;0.50;;
26540;SDS011;14206;50.202;10.948;2023-05-10T06:02:37;0.30;;;0.20;;
26540;SDS011;14206;50.202;10.948;2023-05-10T06:05:05;0.30;;;0.30;;
26540;SDS011;14206;50.202;10.948;2023-05-10T06:07:32;0.20;;;0.20;;
26540;SDS011;14206;50.202;10.948;2023-05-10T06:09:59;0.85;;;0.40;;
26540;SDS011;14206;50.202;10.948;2023-05-10T06:12:26;0.32;;;0.32;;
26540;SDS011;14206;50.202;10.948;2023-05-10T06:14:52;0.40;;;0.40;;
26540;SDS011;14206;50.202;10.948;2023-05-10T06:17:19;1.65;;;0.60;;
26540;SDS011;14206;50.202;10.948;2023-05-10T06:19:46;0.57;;;0.40;;
26540;SDS011;14206;50.202;10.948;2023-05-10T06:22:13;0.35;;;0.35;;
26540;SDS011;14206;50.202;10.948;2023-05-10T06:24:40;0.30;;;0.30;;
26540;SDS011;14206;50.202;10.948;2023-05-10T06:27:07;0.32;;;0.32;;
26540;SDS011;14206;50.202;10.948;2023-05-10T06:29:34;0.40;;;0.32;;
26540;SDS011;14206;50.202;10.948;2023-05-10T06:32:01;0.35;;;0.30;;
26540;SDS011;14206;50.202;10.948;2023-05-10T06:34:28;1.08;;;0.35;;
26540;SDS011;14206;50.202;10.948;2023-05-10T06:36:55;0.20;;;0.20;;
26540;SDS011;14206;50.202;10.948;2023-05-10T06:39:22;0.30;;;0.30;;
26540;SDS011;14206;50.202;10.948;2023-05-10T06:41:49;0.20;;;0.20;;
26540;SDS011;14206;50.202;10.948;2023-05-10T06:44:17;0.43;;;0.10;;
26540;SDS011;14206;50.202;10.948;2023-05-10T06:46:44;0.20;;;0.20;;
26540;SDS011;14206;50.202;10.948;2023-05-10T06:49:11;1.20;;;0.20;;
26540;SDS011;14206;50.202;10.948;2023-05-10T06:51:38;0.17;;;0.17;;
26540;SDS011;14206;50.202;10.948;2023-05-10T06:54:05;0.20;;;0.20;;
26540;SDS011;14206;50.202;10.948;2023-05-10T06:56:31;0.10;;;0.10;;
26540;SDS011;14206;50.202;10.948;2023-05-10T06:58:58;0.20;;;0.20;;
26540;SDS011;14206;50.202;10.948;2023-05-10T07:01:25;0.30;;;0.10;;
26540;SDS011;14206;50.202;10.948;2023-05-10T07:03:52;0.20;;;0.15;;
26540;SDS011;14206;50.202;10.948;2023-05-10T07:06:19;0.28;;;0.20;;
26540;SDS011;14206;50.202;10.948;2023-05-10T07:08:58;0.10;;;0.10;;
26540;SDS011;14206;50.202;10.948;2023-05-10T07:11:25;0.30;;;0.30;;
26540;SDS011;14206;50.202;10.948;2023-05-10T07:13:52;0.25;;;0.25;;
26540;SDS011;14206;50.202;10.948;2023-05-10T07:16:19;0.22;;;0.22;;
26540;SDS011;14206;50.202;10.948;2023-05-10T07:18:47;0.30;;;0.30;;
26540;SDS011;14206;50.202;10.948;2023-05-10T07:21:14;1.27;;;0.30;;
26540;SDS011;14206;50.202;10.948;2023-05-10T07:23:41;0.32;;;0.32;;
26540;SDS011;14206;50.202;10.948;2023-05-10T07:26:10;0.28;;;0.28;;
26540;SDS011;14206;50.202;10.948;2023-05-10T07:28:37;0.38;;;0.35;;
26540;SDS011;14206;50.202;10.948;2023-05-10T07:31:05;0.40;;;0.40;;
26540;SDS011;14206;50.202;10.948;2023-05-10T07:33:32;0.40;;;0.40;;
26540;SDS011;14206;50.202;10.948;2023-05-10T07:35:59;0.45;;;0.35;;
26540;SDS011;14206;50.202;10.948;2023-05-10T07:38:26;0.38;;;0.38;;
26540;SDS011;14206;50.202;10.948;2023-05-10T07:40:52;0.40;;;0.40;;
26540;SDS011;14206;50.202;10.948;2023-05-10T07:43:19;0.65;;;0.32;;
26540;SDS011;14206;50.202;10.948;2023-05-10T07:45:46;0.30;;;0.30;;
26540;SDS011;14206;50.202;10.948;2023-05-10T07:48:13;0.40;;;0.40;;
26540;SDS011;14206;50.202;10.948;2023-05-10T07:50:40;0.45;;;0.40;;
26540;SDS011;14206;50.202;10.948;2023-05-10T07:53:07;0.30;;;0.30;;
26540;SDS011;14206;50.202;10.948;2023-05-10T07:55:34;0.80;;;0.45;;
26540;SDS011;14206;50.202;10.948;2023-05-10T07:58:01;0.60;;;0.38;;
26540;SDS011;14206;50.202;10.948;2023-05-10T08:00:27;0.63;;;0.38;;
26540;SDS011;14206;50.202;10.948;2023-05-10T08:02:54;0.30;;;0.30;;
26540;SDS011;14206;50.202;10.948;2023-05-10T08:05:21;0.20;;;0.20;;
26540;SDS011;14206;50.202;10.948;2023-05-10T08:07:48;0.30;;;0.30;;
26540;SDS011;14206;50.202;10.948;2023-05-10T08:10:15;0.40;;;0.40;;
26540;SDS011;14206;50.202;10.948;2023-05-10T08:12:42;0.63;;;0.40;;
26540;SDS011;14206;50.202;10.948;2023-05-10T08:15:09;0.52;;;0.35;;
26540;SDS011;14206;50.202;10.948;2023-05-10T08:17:36;0.95;;;0.50;;
26540;SDS011;14206;50.202;10.948;2023-05-10T08:20:03;0.40;;;0.40;;
26540;SDS011;14206;50.202;10.948;2023-05-10T08:22:31;0.35;;;0.35;;
26540;SDS011;14206;50.202;10.948;2023-05-10T08:24:57;0.73;;;0.50;;
26540;SDS011;14206;50.202;10.948;2023-05-10T08:27:24;0.45;;;0.40;;
26540;SDS011;14206;50.202;10.948;2023-05-10T08:29:51;0.50;;;0.50;;
26540;SDS011;14206;50.202;10.948;2023-05-10T08:32:18;0.30;;;0.30;;
26540;SDS011;14206;50.202;10.948;2023-05-10T08:34:44;0.28;;;0.28;;
26540;SDS011;14206;50.202;10.948;2023-05-10T08:37:11;0.20;;;0.20;;
26540;SDS011;14206;50.202;10.948;2023-05-10T08:39:39;0.50;;;0.50;;
26540;SDS011;14206;50.202;10.948;2023-05-10T08:42:06;0.40;;;0.40;;
26540;SDS011;14206;50.202;10.948;2023-05-10T08:44:35;0.30;;;0.30;;
26540;SDS011;14206;50.202;10.948;2023-05-10T08:47:06;0.32;;;0.30;;
26540;SDS011;14206;50.202;10.948;2023-05-10T08:49:33;0.35;;;0.35;;
26540;SDS011;14206;50.202;10.948;2023-05-10T08:52:03;1.30;;;0.20;;
26540;SDS011;14206;50.202;10.948;2023-05-10T08:54:33;0.25;;;0.25;;
26540;SDS011;14206;50.202;10.948;2023-05-10T08:57:00;0.40;;;0.40;;
26540;SDS011;14206;50.202;10.948;2023-05-10T08:59:28;0.45;;;0.30;;
26540;SDS011;14206;50.202;10.948;2023-05-10T09:01:55;0.28;;;0.20;;
26540;SDS011;14206;50.202;10.948;2023-05-10T09:04:24;1.05;;;0.50;;
26540;SDS011;14206;50.202;10.948;2023-05-10T09:06:52;0.30;;;0.30;;
26540;SDS011;14206;50.202;10.948;2023-05-10T09:09:20;0.32;;;0.32;;
26540;SDS011;14206;50.202;10.948;2023-05-10T09:11:47;0.43;;;0.38;;
26540;SDS011;14206;50.202;10.948;2023-05-10T09:14:14;0.50;;;0.50;;
26540;SDS011;14206;50.202;10.948;2023-05-10T09:16:41;0.47;;;0.43;;
26540;SDS011;14206;50.202;10.948;2023-05-10T09:19:09;0.35;;;0.35;;
26540;SDS011;14206;50.202;10.948;2023-05-10T09:21:36;0.25;;;0.25;;
26540;SDS011;14206;50.202;10.948;2023-05-10T09:24:07;0.80;;;0.40;;
26540;SDS011;14206;50.202;10.948;2023-05-10T09:26:35;0.20;;;0.20;;
26540;SDS011;14206;50.202;10.948;2023-05-10T09:29:13;0.20;;;0.20;;
26540;SDS011;14206;50.202;10.948;2023-05-10T09:31:52;0.25;;;0.25;;
26540;SDS011;14206;50.202;10.948;2023-05-10T09:34:29;0.30;;;0.30;;
26540;SDS011;14206;50.202;10.948;2023-05-10T09:36:58;0.52;;;0.50;;
26540;SDS011;14206;50.202;10.948;2023-05-10T09:39:30;0.88;;;0.60;;
26540;SDS011;14206;50.202;10.948;2023-05-10T09:42:07;0.30;;;0.30;;
26540;SDS011;14206;50.202;10.948;2023-05-10T09:44:35;0.30;;;0.30;;
26540;SDS011;14206;50.202;10.948;2023-05-10T09:47:04;0.20;;;0.20;;
26540;SDS011;14206;50.202;10.948;2023-05-10T09:49:31;0.30;;;0.30;;
26540;SDS011;14206;50.202;10.948;2023-05-10T09:51:59;0.40;;;0.30;;
26540;SDS011;14206;50.202;10.948;2023-05-10T09:54:28;2.03;;;0.70;;
26540;SDS011;14206;50.202;10.948;2023-05-10T09:56:55;0.43;;;0.43;;
26540;SDS011;14206;50.202;10.948;2023-05-10T09:59:23;0.60;;;0.47;;
26540;SDS011;14206;50.202;10.948;2023-05-10T10:01:56;0.30;;;0.30;;
26540;SDS011;14206;50.202;10.948;2023-05-10T10:04:24;0.50;;;0.40;;
26540;SDS011;14206;50.202;10.948;2023-05-10T10:07:04;0.40;;;0.40;;
26540;SDS011;14206;50.202;10.948;2023-05-10T10:09:32;0.60;;;0.38;;
26540;SDS011;14206;50.202;10.948;2023-05-10T10:12:00;0.40;;;0.40;;
26540;SDS011;14206;50.202;10.948;2023-05-10T10:14:28;0.38;;;0.38;;
26540;SDS011;14206;50.202;10.948;2023-05-10T10:16:56;1.27;;;0.50;;
26540;SDS011;14206;50.202;10.948;2023-05-10T10:19:34;1.55;;;0.30;;
26540;SDS011;14206;50.202;10.948;2023-05-10T10:22:02;0.30;;;0.30;;
26540;SDS011;14206;50.202;10.948;2023-05-10T10:24:29;0.68;;;0.45;;
26540;SDS011;14206;50.202;10.948;2023-05-10T10:26:57;0.45;;;0.40;;
26540;SDS011;14206;50.202;10.948;2023-05-10T10:32:35;1.20;;;0.75;;
26540;SDS011;14206;50.202;10.948;2023-05-10T10:35:23;0.30;;;0.30;;
26540;SDS011;14206;50.202;10.948;2023-05-10T10:37:50;0.40;;;0.40;;
26540;SDS011;14206;50.202;10.948;2023-05-10T10:42:52;0.88;;;0.50;;
26540;SDS011;14206;50.202;10.948;2023-05-10T10:45:20;1.23;;;0.30;;
26540;SDS011;14206;50.202;10.948;2023-05-10T10:47:47;0.30;;;0.30;;
26540;SDS011;14206;50.202;10.948;2023-05-10T10:50:14;0.50;;;0.50;;
26540;SDS011;14206;50.202;10.948;2023-05-10T10:52:44;0.70;;;0.70;;
26540;SDS011;14206;50.202;10.948;2023-05-10T10:55:19;0.52;;;0.50;;
26540;SDS011;14206;50.202;10.948;2023-05-10T10:57:51;0.55;;;0.50;;
26540;SDS011;14206;50.202;10.948;2023-05-10T11:00:31;0.30;;;0.30;;
26540;SDS011;14206;50.202;10.948;2023-05-10T11:03:10;0.30;;;0.30;;
26540;SDS011;14206;50.202;10.948;2023-05-10T11:05:45;0.20;;;0.20;;
26540;SDS011;14206;50.202;10.948;2023-05-10T11:08:21;1.10;;;0.57;;
26540;SDS011;14206;50.202;10.948;2023-05-10T11:16:09;0.47;;;0.47;;
26540;SDS011;14206;50.202;10.948;2023-05-10T11:18:38;0.30;;;0.30;;
26540;SDS011;14206;50.202;10.948;2023-05-10T11:21:04;0.35;;;0.35;;
26540;SDS011;14206;50.202;10.948;2023-05-10T11:26:07;0.60;;;0.60;;
26540;SDS011;14206;50.202;10.948;2023-05-10T11:28:47;0.60;;;0.60;;
26540;SDS011;14206;50.202;10.948;2023-05-10T11:31:15;0.55;;;0.55;;
26540;SDS011;14206;50.202;10.948;2023-05-10T11:33:48;0.52;;;0.52;;
26540;SDS011;14206;50.202;10.948;2023-05-10T11:36:20;0.85;;;0.85;;
26540;SDS011;14206;50.202;10.948;2023-05-10T11:38:48;1.15;;;0.60;;
26540;SDS011;14206;50.202;10.948;2023-05-10T11:41:15;0.65;;;0.65;;
26540;SDS011;14206;50.202;10.948;2023-05-10T11:43:45;0.75;;;0.75;;
26540;SDS011;14206;50.202;10.948;2023-05-10T11:46:15;1.23;;;0.70;;
26540;SDS011;14206;50.202;10.948;2023-05-10T11:48:44;1.13;;;0.80;;
26540;SDS011;14206;50.202;10.948;2023-05-10T11:51:11;0.80;;;0.80;;
26540;SDS011;14206;50.202;10.948;2023-05-10T11:53:38;1.45;;;0.70;;
26540;SDS011;14206;50.202;10.948;2023-05-10T11:56:06;1.75;;;1.00;;
26540;SDS011;14206;50.202;10.948;2023-05-10T11:58:34;0.93;;;0.80;;
26540;SDS011;14206;50.202;10.948;2023-05-10T12:01:02;0.55;;;0.55;;
26540;SDS011;14206;50.202;10.948;2023-05-10T12:03:32;1.65;;;0.80;;
26540;SDS011;14206;50.202;10.948;2023-05-10T12:06:01;2.15;;;0.90;;
26540;SDS011;14206;50.202;10.948;2023-05-10T12:08:29;1.05;;;1.00;;
26540;SDS011;14206;50.202;10.948;2023-05-10T12:11:06;1.20;;;0.77;;
26540;SDS011;14206;50.202;10.948;2023-05-10T12:13:37;1.40;;;0.90;;
26540;SDS011;14206;50.202;10.948;2023-05-10T12:19:02;1.95;;;0.98;;
26540;SDS011;14206;50.202;10.948;2023-05-10T12:21:29;1.23;;;1.10;;
26540;SDS011;14206;50.202;10.948;2023-05-10T12:24:00;1.58;;;1.10;;
26540;SDS011;14206;50.202;10.948;2023-05-10T12:26:29;1.40;;;0.80;;
26540;SDS011;14206;50.202;10.948;2023-05-10T12:29:14;0.98;;;0.80;;
26540;SDS011;14206;50.202;10.948;2023-05-10T12:31:56;0.80;;;0.80;;
26540;SDS011;14206;50.202;10.948;2023-05-10T12:34:30;1.48;;;1.00;;
26540;SDS011;14206;50.202;10.948;2023-05-10T12:36:59;0.73;;;0.73;;
26540;SDS011;14206;50.202;10.948;2023-05-10T12:39:26;0.98;;;0.90;;
26540;SDS011;14206;50.202;10.948;2023-05-10T12:42:07;0.60;;;0.60;;
26540;SDS011;14206;50.202;10.948;2023-05-10T12:44:35;0.60;;;0.55;;
26540;SDS011;14206;50.202;10.948;2023-05-10T12:47:01;0.50;;;0.50;;
26540;SDS011;14206;50.202;10.948;2023-05-10T12:49:28;0.40;;;0.40;;
26540;SDS011;14206;50.202;10.948;2023-05-10T12:51:55;0.45;;;0.45;;
26540;SDS011;14206;50.202;10.948;2023-05-10T12:54:22;0.82;;;0.68;;
26540;SDS011;14206;50.202;10.948;2023-05-10T12:56:49;0.50;;;0.50;;
26540;SDS011;14206;50.202;10.948;2023-05-10T12:59:15;0.50;;;0.50;;
26540;SDS011;14206;50.202;10.948;2023-05-10T13:01:42;0.70;;;0.70;;
26540;SDS011;14206;50.202;10.948;2023-05-10T13:04:09;1.88;;;0.85;;
26540;SDS011;14206;50.202;10.948;2023-05-10T13:06:37;1.38;;;0.88;;
26540;SDS011;14206;50.202;10.948;2023-05-10T13:09:04;0.77;;;0.70;;
26540;SDS011;14206;50.202;10.948;2023-05-10T13:11:31;0.60;;;0.60;;
26540;SDS011;14206;50.202;10.948;2023-05-10T13:13:58;1.75;;;0.70;;
26540;SDS011;14206;50.202;10.948;2023-05-10T13:16:25;1.08;;;0.70;;
26540;SDS011;14206;50.202;10.948;2023-05-10T13:18:52;0.75;;;0.75;;
26540;SDS011;14206;50.202;10.948;2023-05-10T13:21:19;0.60;;;0.60;;
26540;SDS011;14206;50.202;10.948;2023-05-10T13:23:45;0.60;;;0.60;;
26540;SDS011;14206;50.202;10.948;2023-05-10T13:26:13;0.98;;;0.77;;
26540;SDS011;14206;50.202;10.948;2023-05-10T13:28:39;1.42;;;0.80;;
26540;SDS011;14206;50.202;10.948;2023-05-10T13:31:07;0.75;;;0.75;;
26540;SDS011;14206;50.202;10.948;2023-05-10T13:33:34;0.82;;;0.82;;
26540;SDS011;14206;50.202;10.948;2023-05-10T13:36:01;0.80;;;0.80;;
26540;SDS011;14206;50.202;10.948;2023-05-10T13:38:27;0.57;;;0.57;;
26540;SDS011;14206;50.202;10.948;2023-05-10T13:40:54;0.57;;;0.57;;
26540;SDS011;14206;50.202;10.948;2023-05-10T13:43:21;1.20;;;1.00;;
26540;SDS011;14206;50.202;10.948;2023-05-10T13:45:48;1.17;;;0.75;;
26540;SDS011;14206;50.202;10.948;2023-05-10T13:48:14;0.77;;;0.75;;
26540;SDS011;14206;50.202;10.948;2023-05-10T13:50:42;0.70;;;0.70;;
26540;SDS011;14206;50.202;10.948;2023-05-10T13:53:09;0.50;;;0.50;;
26540;SDS011;14206;50.202;10.948;2023-05-10T13:55:36;1.73;;;0.70;;
26540;SDS011;14206;50.202;10.948;2023-05-10T13:58:03;0.90;;;0.55;;
26540;SDS011;14206;50.202;10.948;2023-05-10T14:00:30;1.00;;;0.90;;
26540;SDS011;14206;50.202;10.948;2023-05-10T14:02:56;0.75;;;0.75;;
26540;SDS011;14206;50.202;10.948;2023-05-10T14:05:23;1.10;;;0.70;;
26540;SDS011;14206;50.202;10.948;2023-05-10T14:07:52;0.65;;;0.60;;
26540;SDS011;14206;50.202;10.948;2023-05-10T14:10:18;0.63;;;0.63;;
26540;SDS011;14206;50.202;10.948;2023-05-10T14:12:46;0.52;;;0.50;;
26540;SDS011;14206;50.202;10.948;2023-05-10T14:15:12;0.50;;;0.50;;
26540;SDS011;14206;50.202;10.948;2023-05-10T14:17:40;2.15;;;0.60;;
26540;SDS011;14206;50.202;10.948;2023-05-10T14:20:07;0.50;;;0.50;;
26540;SDS011;14206;50.202;10.948;2023-05-10T14:22:34;0.43;;;0.43;;
26540;SDS011;14206;50.202;10.948;2023-05-10T14:25:01;0.40;;;0.40;;
26540;SDS011;14206;50.202;10.948;2023-05-10T14:27:28;0.68;;;0.50;;
26540;SDS011;14206;50.202;10.948;2023-05-10T14:29:56;0.40;;;0.38;;
26540;SDS011;14206;50.202;10.948;2023-05-10T14:32:23;0.50;;;0.50;;
26540;SDS011;14206;50.202;10.948;2023-05-10T14:34:50;0.68;;;0.40;;
26540;SDS011;14206;50.202;10.948;2023-05-10T14:37:16;0.45;;;0.45;;
26540;SDS011;14206;50.202;10.948;2023-05-10T14:39:43;0.47;;;0.47;;
26540;SDS011;14206;50.202;10.948;2023-05-10T14:42:10;0.38;;;0.38;;
26540;SDS011;14206;50.202;10.948;2023-05-10T14:44:37;0.75;;;0.45;;
26540;SDS011;14206;50.202;10.948;2023-05-10T14:47:04;0.47;;;0.47;;
26540;SDS011;14206;50.202;10.948;2023-05-10T14:49:31;0.40;;;0.40;;
26540;SDS011;14206;50.202;10.948;2023-05-10T14:51:58;0.32;;;0.32;;
26540;SDS011;14206;50.202;10.948;2023-05-10T14:54:24;0.30;;;0.30;;
26540;SDS011;14206;50.202;10.948;2023-05-10T14:56:52;0.40;;;0.40;;
26540;SDS011;14206;50.202;10.948;2023-05-10T14:59:19;0.55;;;0.45;;
26540;SDS011;14206;50.202;10.948;2023-05-10T15:01:46;1.40;;;0.60;;
26540;SDS011;14206;50.202;10.948;2023-05-10T15:04:14;0.55;;;0.52;;
26540;SDS011;14206;50.202;10.948;2023-05-10T15:06:43;0.85;;;0.40;;
26540;SDS011;14206;50.202;10.948;2023-05-10T15:09:10;0.38;;;0.38;;
26540;SDS011;14206;50.202;10.948;2023-05-10T15:11:37;0.55;;;0.55;;
26540;SDS011;14206;50.202;10.948;2023-05-10T15:14:03;0.50;;;0.50;;
26540;SDS011;14206;50.202;10.948;2023-05-10T15:16:30;0.40;;;0.40;;